Time;durP1;ratioP1;P1;durP2;ratioP2;P2;SDS_P1;SDS_P2;PMS_P1;PMS_P2;Temp;Humidity;BMP_temperature;BMP_pressure;BME280_temperature;BME280_humidity;BME280_pressure;Samples;Min_cycle;Max_cycle;Signal;HPM_P1;HPM_P2
2023/09/12 00:02:26;;;;;;;0.10;0.10;;;;;;;24.95;100.00;101203.19;10456323;28;20713;-73
2023/09/12 00:07:27;;;;;;;0.32;0.32;;;;;;;23.93;100.00;101108.59;10440162;28;20045;-74
2023/09/12 00:12:29;;;;;;;0.25;0.20;;;;;;;24.44;100.00;101122.13;10456303;28;20048;-74
2023/09/12 00:17:31;;;;;;;0.57;0.55;;;;;;;24.17;100.00;101114.94;10449804;28;20045;-74
2023/09/12 00:22:32;;;;;;;1.15;0.43;;;;;;;24.04;100.00;101127.56;10455389;28;20041;-74
2023/09/12 00:27:34;;;;;;;0.90;0.80;;;;;;;24.01;100.00;101077.66;10454930;28;20041;-74
2023/09/12 00:32:36;;;;;;;0.70;0.70;;;;;;;23.89;100.00;101088.47;10438892;28;20454;-74
2023/09/12 00:37:37;;;;;;;0.70;0.55;;;;;;;23.49;100.00;101050.94;10435219;28;20037;-74
2023/09/12 00:42:39;;;;;;;2.60;1.55;;;;;;;24.19;100.00;101096.47;10459429;28;20045;-74
2023/09/12 00:47:41;;;;;;;2.28;1.17;;;;;;;23.49;100.00;101098.28;10454374;28;20075;-73
2023/09/12 00:52:43;;;;;;;1.98;1.25;;;;;;;22.98;100.00;101071.41;10423968;28;20044;-74
2023/09/12 00:57:46;;;;;;;1.85;1.33;;;;;;;23.34;100.00;101023.28;10428903;28;20786;-76
2023/09/12 01:02:49;;;;;;;1.08;0.85;;;;;;;24.34;100.00;101084.66;10448556;28;20044;-75
2023/09/12 01:07:51;;;;;;;1.70;0.75;;;;;;;24.03;100.00;101049.53;10451551;28;20079;-74
2023/09/12 01:12:53;;;;;;;0.55;0.40;;;;;;;24.45;100.00;101087.81;10433996;28;20045;-74
2023/09/12 01:17:56;;;;;;;0.80;0.60;;;;;;;23.72;100.00;101031.91;10435631;28;20087;-74
2023/09/12 01:23:26;;;;;;;1.50;0.75;;;;;;;24.54;100.00;101076.16;10453682;28;20068;-74
2023/09/12 01:28:31;;;;;;;1.52;0.70;;;;;;;24.31;100.00;101059.25;10437762;28;20051;-74
2023/09/12 01:33:33;;;;;;;3.30;0.45;;;;;;;23.89;100.00;101034.09;10453617;28;20055;-74
2023/09/12 01:38:34;;;;;;;0.85;0.80;;;;;;;23.60;100.00;100995.44;10440152;28;20049;-74
2023/09/12 01:43:39;;;;;;;3.25;0.90;;;;;;;24.36;100.00;101040.69;10452351;28;20047;-74
2023/09/12 01:48:42;;;;;;;1.45;1.02;;;;;;;23.68;100.00;101011.88;10436736;28;20041;-74
2023/09/12 01:53:45;;;;;;;1.48;1.08;;;;;;;23.20;100.00;100993.84;10452438;28;20546;-73
2023/09/12 01:58:47;;;;;;;0.88;0.73;;;;;;;24.22;100.00;101049.88;10439003;28;20132;-74
2023/09/12 02:03:49;;;;;;;1.52;0.63;;;;;;;23.53;100.00;101002.63;10450407;28;20044;-73
2023/09/12 02:08:50;;;;;;;0.60;0.40;;;;;;;23.64;100.00;101036.53;10461248;28;20044;-74
2023/09/12 02:13:52;;;;;;;1.23;0.90;;;;;;;24.04;100.00;101063.56;10433935;28;20053;-73
2023/09/12 02:18:53;;;;;;;0.65;0.40;;;;;;;24.10;100.00;101094.09;10418031;28;20404;-74
2023/09/12 02:23:55;;;;;;;1.45;1.23;;;;;;;24.00;100.00;101091.72;10430688;28;20045;-73
2023/09/12 02:28:57;;;;;;;1.08;0.20;;;;;;;23.79;100.00;101092.28;10443693;28;20405;-74
2023/09/12 02:33:59;;;;;;;0.00;0.00;;;;;;;22.76;100.00;101078.06;10460130;28;20064;-74
2023/09/12 02:39:00;;;;;;;0.20;0.03;;;;;;;23.33;100.00;101099.53;10459750;28;20480;-74
2023/09/12 02:44:02;;;;;;;0.13;0.10;;;;;;;23.44;100.00;101108.91;10437791;28;20048;-74
2023/09/12 02:49:04;;;;;;;0.57;0.45;;;;;;;22.16;100.00;101052.13;10453521;28;20037;-74
2023/09/12 02:54:06;;;;;;;0.25;0.25;;;;;;;22.64;100.00;101051.16;10449195;28;20500;-73
2023/09/12 02:59:08;;;;;;;0.50;0.30;;;;;;;21.94;100.00;101014.09;10429169;28;20048;-74
2023/09/12 03:04:09;;;;;;;2.10;1.23;;;;;;;21.80;100.00;100981.16;10447303;28;20063;-74
2023/09/12 03:09:13;;;;;;;0.47;0.32;;;;;;;22.82;100.00;101031.50;10441297;28;20041;-74
2023/09/12 03:14:14;;;;;;;1.13;0.68;;;;;;;22.38;100.00;101025.44;10458380;28;20116;-74
2023/09/12 03:19:17;;;;;;;0.13;0.10;;;;;;;23.30;100.00;101061.06;10438177;28;20488;-75
2023/09/12 03:24:21;;;;;;;2.15;0.40;;;;;;;23.48;100.00;101096.53;10452627;28;20074;-74
2023/09/12 03:29:23;;;;;;;0.38;0.20;;;;;;;23.75;100.00;101108.13;10435883;28;20049;-74
2023/09/12 03:34:24;;;;;;;0.10;0.10;;;;;;;23.56;100.00;101089.31;10446512;28;20152;-74
2023/09/12 03:39:26;;;;;;;0.10;0.10;;;;;;;23.43;100.00;101086.13;10429470;28;20041;-75
2023/09/12 03:44:28;;;;;;;0.35;0.15;;;;;;;22.93;100.00;101075.94;10432744;28;20053;-74
2023/09/12 03:49:30;;;;;;;0.20;0.17;;;;;;;23.09;100.00;101081.69;10430865;28;20138;-74
2023/09/12 03:54:32;;;;;;;0.55;0.25;;;;;;;22.85;100.00;101087.47;10433483;28;20056;-75
2023/09/12 03:59:34;;;;;;;0.47;0.40;;;;;;;22.77;100.00;101075.38;10453064;28;20117;-74
2023/09/12 04:04:36;;;;;;;0.00;0.00;;;;;;;22.58;100.00;101063.56;10436659;28;20053;-75
2023/09/12 04:09:37;;;;;;;0.63;0.00;;;;;;;22.68;100.00;101062.47;10448562;28;20568;-74
2023/09/12 04:14:39;;;;;;;0.57;0.43;;;;;;;22.68;100.00;101061.59;10445506;28;20480;-75
2023/09/12 04:19:41;;;;;;;0.20;0.20;;;;;;;22.64;100.00;101039.81;10455779;28;20084;-74
2023/09/12 04:24:42;;;;;;;0.30;0.20;;;;;;;22.60;100.00;101052.13;10436824;28;20075;-75
2023/09/12 04:29:44;;;;;;;0.38;0.25;;;;;;;22.78;100.00;101039.50;10435532;28;20544;-75
2023/09/12 04:34:46;;;;;;;0.40;0.20;;;;;;;23.07;100.00;101051.94;10455213;28;20120;-74
2023/09/12 04:39:48;;;;;;;0.30;0.13;;;;;;;22.62;100.00;101041.59;10453440;28;20041;-74
2023/09/12 04:44:50;;;;;;;0.00;0.00;;;;;;;22.53;100.00;101033.91;10438734;28;20076;-74
2023/09/12 04:49:52;;;;;;;0.08;0.08;;;;;;;22.23;100.00;101031.88;10438261;28;20045;-75
2023/09/12 04:54:53;;;;;;;1.02;0.52;;;;;;;21.76;100.00;101000.47;10438614;28;20048;-74
2023/09/12 04:59:55;;;;;;;0.45;0.45;;;;;;;22.82;100.00;101052.50;10448751;28;20088;-75
2023/09/12 05:04:57;;;;;;;0.47;0.30;;;;;;;22.50;100.00;101067.22;10429470;28;20049;-74
2023/09/12 05:09:59;;;;;;;0.20;0.20;;;;;;;22.47;100.00;101051.53;10452442;28;20041;-75
2023/09/12 05:15:02;;;;;;;0.20;0.20;;;;;;;23.13;100.00;101083.31;10427575;28;20041;-75
2023/09/12 05:20:04;;;;;;;0.28;0.28;;;;;;;22.44;100.00;101055.97;10431643;28;20045;-75
2023/09/12 05:25:09;;;;;;;0.43;0.30;;;;;;;21.65;100.00;101028.63;10445221;28;20110;-74
2023/09/12 05:30:11;;;;;;;1.27;0.30;;;;;;;21.79;100.00;101021.38;10436873;28;20049;-74
2023/09/12 05:35:12;;;;;;;0.43;0.40;;;;;;;23.30;100.00;101111.00;10403455;28;20052;-74
2023/09/12 05:40:24;;;;;;;0.22;0.20;;;;;;;23.37;100.00;101138.88;10430531;28;20072;-75
2023/09/12 05:45:26;;;;;;;0.10;0.10;;;;;;;23.21;100.00;101132.25;10436174;28;20049;-75
2023/09/12 05:50:28;;;;;;;1.35;0.88;;;;;;;23.02;100.00;101116.00;10452191;28;20072;-75
2023/09/12 05:55:30;;;;;;;0.20;0.20;;;;;;;23.06;100.00;101108.00;10416183;28;20064;-75
2023/09/12 06:00:33;;;;;;;0.20;0.20;;;;;;;23.60;100.00;101150.59;10452456;28;20049;-75
2023/09/12 06:05:35;;;;;;;0.10;0.10;;;;;;;23.50;100.00;101149.06;10437865;28;20091;-75
2023/09/12 06:10:36;;;;;;;0.55;0.30;;;;;;;23.79;100.00;101155.41;10452921;28;20697;-75
2023/09/12 06:15:38;;;;;;;0.60;0.35;;;;;;;23.76;100.00;101161.59;10436568;28;20481;-75
2023/09/12 06:20:40;;;;;;;0.00;0.00;;;;;;;23.38;100.00;101116.09;10435683;28;20053;-75
2023/09/12 06:25:42;;;;;;;0.60;0.35;;;;;;;23.65;100.00;101135.56;10426163;28;20049;-75
2023/09/12 06:30:44;;;;;;;0.70;0.32;;;;;;;23.77;100.00;101143.16;10452629;28;20396;-74
2023/09/12 06:35:52;;;;;;;0.57;0.32;;;;;;;23.14;100.00;101100.81;10438969;28;20502;-74
2023/09/12 06:40:55;;;;;;;0.77;0.63;;;;;;;23.78;100.00;101151.91;10431453;28;20049;-74
2023/09/12 06:45:56;;;;;;;1.02;0.80;;;;;;;22.88;100.00;101113.69;10456276;28;20050;-75
2023/09/12 06:50:58;;;;;;;2.05;0.80;;;;;;;23.13;100.00;101114.84;10440769;28;20045;-75
2023/09/12 06:56:00;;;;;;;0.98;0.73;;;;;;;23.08;100.00;101095.72;10449353;28;20051;-75
2023/09/12 07:01:03;;;;;;;2.42;1.98;;;;;;;23.33;100.00;101126.72;10435548;28;20048;-75
2023/09/12 07:06:05;;;;;;;1.90;1.35;;;;;;;23.59;100.00;101130.44;10459109;28;20052;-74
2023/09/12 07:11:06;;;;;;;1.42;1.00;;;;;;;23.72;100.00;101139.75;10447640;28;20100;-75
2023/09/12 07:16:08;;;;;;;1.08;0.65;;;;;;;23.38;100.00;101124.81;10455293;28;20139;-75
2023/09/12 07:21:12;;;;;;;1.65;0.80;;;;;;;23.52;100.00;101121.88;10441395;28;20152;-75
2023/09/12 07:26:14;;;;;;;2.92;1.13;;;;;;;23.46;100.00;101122.00;10450321;28;20106;-74
2023/09/12 07:31:16;;;;;;;2.15;0.80;;;;;;;23.86;100.00;101114.88;10418934;28;20045;-75
2023/09/12 07:36:18;;;;;;;0.65;0.57;;;;;;;23.79;100.00;101113.31;10454631;28;20046;-75
2023/09/12 07:41:19;;;;;;;2.30;0.65;;;;;;;23.33;100.00;101084.66;10420684;28;20087;-75
2023/09/12 07:46:21;;;;;;;1.92;1.20;;;;;;;23.27;100.00;101075.16;10449803;28;20065;-74
2023/09/12 07:51:23;;;;;;;0.55;0.50;;;;;;;23.10;100.00;101058.88;10433975;28;20073;-75
2023/09/12 07:56:24;;;;;;;2.72;1.52;;;;;;;24.01;100.00;101090.84;10438784;28;20558;-75
2023/09/12 08:01:27;;;;;;;0.57;0.28;;;;;;;24.66;100.00;101132.88;10436834;28;20053;-75
2023/09/12 08:06:30;;;;;;;1.65;0.75;;;;;;;24.13;100.00;101115.91;10454525;28;20049;-75
2023/09/12 08:11:44;;;;;;;1.15;1.05;;;;;;;24.87;100.00;101141.94;10451091;28;20128;-75
2023/09/12 08:16:46;;;;;;;1.40;1.00;;;;;;;25.13;100.00;101149.06;10456324;28;20041;-75
2023/09/12 08:21:47;;;;;;;4.63;1.33;;;;;;;24.87;100.00;101141.94;10449651;28;20038;-75
2023/09/12 08:26:49;;;;;;;1.95;1.00;;;;;;;24.18;100.00;101132.47;10452288;28;20091;-75
2023/09/12 08:31:52;;;;;;;3.13;1.05;;;;;;;24.87;100.00;101118.22;10452459;28;20053;-75
2023/09/12 08:36:54;;;;;;;6.13;2.53;;;;;;;24.48;100.00;101115.84;10437320;28;20042;-75
2023/09/12 08:41:55;;;;;;;1.30;0.95;;;;;;;25.43;100.00;101146.38;10435500;28;20053;-75
2023/09/12 08:46:59;;;;;;;4.55;1.90;;;;;;;24.78;100.00;101121.13;10438221;28;20072;-75
2023/09/12 08:52:01;;;;;;;1.10;1.00;;;;;;;24.51;100.00;101123.66;10451712;28;20072;-75
2023/09/12 08:57:06;;;;;;;1.38;1.10;;;;;;;25.32;100.00;101151.97;10453650;28;20054;-75
2023/09/12 09:02:10;;;;;;;2.75;1.40;;;;;;;25.96;100.00;101187.72;10446008;28;20076;-75
2023/09/12 09:07:13;;;;;;;3.05;1.90;;;;;;;25.93;100.00;101189.59;10453534;28;20052;-75
2023/09/12 09:12:15;;;;;;;1.38;1.08;;;;;;;25.58;100.00;101229.41;10441899;28;20466;-75
2023/09/12 09:17:16;;;;;;;2.40;0.70;;;;;;;25.78;100.00;101235.84;10453485;28;20512;-75
2023/09/12 09:22:35;;;;;;;1.63;0.90;;;;;;;25.20;100.00;101218.28;10435195;28;20111;-75
2023/09/12 09:27:37;;;;;;;0.38;0.38;;;;;;;25.97;100.00;101247.50;10437389;28;20076;-75
2023/09/12 09:32:39;;;;;;;3.03;1.70;;;;;;;25.54;100.00;101233.09;10425980;28;20056;-75
2023/09/12 09:37:42;;;;;;;1.67;1.00;;;;;;;25.96;100.00;101229.09;10414164;28;20050;-75
2023/09/12 09:42:43;;;;;;;4.97;1.17;;;;;;;26.35;100.00;101272.69;10435071;28;20045;-74
2023/09/12 09:47:45;;;;;;;2.72;1.20;;;;;;;28.01;100.00;101275.31;10452635;28;20472;-75
2023/09/12 09:52:53;;;;;;;7.30;2.13;;;;;;;26.34;100.00;101269.22;10442030;28;20036;-74
2023/09/12 09:57:56;;;;;;;3.20;1.50;;;;;;;27.84;100.00;101294.56;10440379;28;20103;-75
2023/09/12 10:02:59;;;;;;;1.85;1.65;;;;;;;27.13;100.00;101308.72;10447103;28;20041;-75
2023/09/12 10:08:02;;;;;;;4.97;1.52;;;;;;;27.66;100.00;101312.03;10434228;28;20052;-75
2023/09/12 10:13:05;;;;;;;1.70;1.52;;;;;;;27.36;100.00;101320.22;10428268;28;20045;-75
2023/09/12 10:18:14;;;;;;;5.75;2.67;;;;;;;28.33;100.00;101336.72;10455913;28;20057;-75
2023/09/12 10:23:43;;;;;;;3.88;1.83;;;;;;;27.24;100.00;101322.38;10455475;28;20064;-75
2023/09/12 10:28:46;;;;;;;2.17;1.80;;;;;;;27.73;100.00;101312.63;10432461;28;20049;-75
2023/09/12 10:33:49;;;;;;;0.85;0.82;;;;;;;28.70;100.00;101306.03;10429643;28;20127;-75
2023/09/12 10:38:51;;;;;;;3.30;1.33;;;;;;;28.50;100.00;101299.75;10430575;28;20060;-75
2023/09/12 10:43:53;;;;;;;1.33;1.23;;;;;;;28.33;100.00;101303.13;10454414;28;20403;-75
2023/09/12 10:48:55;;;;;;;2.03;0.98;;;;;;;29.54;100.00;101304.88;10445034;28;20045;-75
2023/09/12 10:53:57;;;;;;;2.28;1.35;;;;;;;29.48;100.00;101305.16;10445774;28;20053;-75
2023/09/12 10:59:06;;;;;;;0.50;0.50;;;;;;;29.38;100.00;101300.28;10428834;28;20041;-75
2023/09/12 11:04:20;;;;;;;2.83;1.58;;;;;;;29.04;100.00;101303.66;10451154;28;20471;-75
2023/09/12 11:09:28;;;;;;;1.10;0.77;;;;;;;29.66;100.00;101306.06;10426091;28;20052;-75
2023/09/12 11:14:31;;;;;;;1.23;0.70;;;;;;;29.23;100.00;101303.63;10429385;28;20038;-75
2023/09/12 11:19:44;;;;;;;0.95;0.77;;;;;;;30.40;100.00;101307.75;10436364;28;20044;-75
2023/09/12 11:24:47;;;;;;;1.05;0.68;;;;;;;30.57;100.00;101304.25;10439821;28;20037;-75
2023/09/12 11:29:49;;;;;;;0.70;0.52;;;;;;;28.66;100.00;101301.72;10440881;28;20107;-75
2023/09/12 11:34:52;;;;;;;0.63;0.40;;;;;;;30.52;100.00;101300.97;10436797;28;20511;-76
2023/09/12 11:39:54;;;;;;;1.98;0.80;;;;;;;29.84;100.00;101293.69;10453633;28;20511;-75
2023/09/12 11:44:56;;;;;;;0.52;0.52;;;;;;;29.95;100.00;101274.59;10452902;28;20496;-76
2023/09/12 11:49:58;;;;;;;0.90;0.20;;;;;;;30.48;100.00;101278.13;10448244;28;20051;-76
2023/09/12 11:55:00;;;;;;;2.25;1.40;;;;;;;31.25;100.00;101268.69;10450368;28;20044;-76
2023/09/12 12:00:08;;;;;;;0.55;0.30;;;;;;;31.16;100.00;101275.41;10443491;28;20042;-75
2023/09/12 12:05:13;;;;;;;0.38;0.38;;;;;;;30.57;100.00;101271.50;10455076;28;20060;-75
2023/09/12 12:10:17;;;;;;;0.35;0.35;;;;;;;28.97;100.00;101265.91;10446791;28;20145;-76
2023/09/12 12:15:18;;;;;;;0.32;0.30;;;;;;;30.18;100.00;101270.81;10454269;28;20400;-76
2023/09/12 12:20:20;;;;;;;0.75;0.40;;;;;;;30.34;100.00;101270.84;10436893;28;20515;-75
2023/09/12 12:25:22;;;;;;;0.60;0.40;;;;;;;29.95;100.00;101264.84;10429246;28;20045;-75
2023/09/12 12:30:24;;;;;;;13.93;0.98;;;;;;;30.44;100.00;101255.28;10438046;28;20506;-76
2023/09/12 12:35:26;;;;;;;0.52;0.30;;;;;;;30.12;100.00;101265.81;10429362;28;20541;-75
2023/09/12 12:40:47;;;;;;;1.83;0.73;;;;;;;29.49;100.00;101261.78;10433073;28;20040;-75
2023/09/12 12:45:55;;;;;;;0.15;0.13;;;;;;;31.24;100.00;101251.00;10430732;28;20140;-75
2023/09/12 12:50:59;;;;;;;0.65;0.28;;;;;;;30.66;100.00;101250.59;10450595;28;20041;-75
2023/09/12 12:56:01;;;;;;;0.17;0.10;;;;;;;30.33;100.00;101254.06;10441603;28;20041;-75
2023/09/12 13:01:02;;;;;;;0.40;0.22;;;;;;;29.76;100.00;101257.75;10449961;28;20056;-75
2023/09/12 13:06:06;;;;;;;3.17;0.75;;;;;;;30.64;100.00;101252.44;10449747;28;20095;-75
2023/09/12 13:11:09;;;;;;;1.85;1.05;;;;;;;30.46;100.00;101248.94;10443761;28;20032;-75
2023/09/12 13:16:13;;;;;;;0.28;0.20;;;;;;;30.52;100.00;101250.47;10440006;28;20049;-75
2023/09/12 13:21:15;;;;;;;1.08;0.52;;;;;;;30.44;100.00;101244.66;10417007;28;20140;-75
2023/09/12 13:26:17;;;;;;;1.23;0.88;;;;;;;30.38;100.00;101238.72;10445107;28;20515;-75
2023/09/12 13:31:18;;;;;;;0.15;0.15;;;;;;;29.92;100.00;101230.47;10447167;28;20500;-75
2023/09/12 13:36:20;;;;;;;0.32;0.32;;;;;;;29.93;100.00;101234.84;10439811;28;20067;-75
2023/09/12 13:41:25;;;;;;;0.73;0.20;;;;;;;28.95;100.00;101217.38;10427745;28;20046;-74
2023/09/12 13:46:27;;;;;;;0.88;0.43;;;;;;;29.79;100.00;101200.13;10437608;28;20075;-75
2023/09/12 13:51:29;;;;;;;1.63;0.60;;;;;;;29.71;100.00;101193.41;10431601;28;20045;-75
2023/09/12 13:56:31;;;;;;;0.47;0.28;;;;;;;30.22;100.00;101187.31;10459852;28;20056;-75
2023/09/12 14:01:33;;;;;;;0.30;0.30;;;;;;;30.04;100.00;101190.00;10451157;28;20175;-75
2023/09/12 14:06:36;;;;;;;0.57;0.30;;;;;;;30.25;100.00;101191.59;10459407;28;20051;-76
2023/09/12 14:11:39;;;;;;;0.52;0.25;;;;;;;29.42;100.00;101195.72;10448818;28;20120;-75
2023/09/12 14:16:41;;;;;;;1.13;0.40;;;;;;;29.56;100.00;101202.13;10455021;28;20171;-75
2023/09/12 14:21:48;;;;;;;0.65;0.47;;;;;;;29.98;100.00;101200.94;10452069;28;20098;-75
2023/09/12 14:26:50;;;;;;;0.45;0.35;;;;;;;29.09;100.00;101183.09;10439427;28;20048;-75
2023/09/12 14:31:57;;;;;;;0.20;0.20;;;;;;;29.50;100.00;101174.09;10432976;28;20041;-76
2023/09/12 14:36:59;;;;;;;0.43;0.43;;;;;;;29.93;100.00;101172.91;10450104;28;20504;-75
2023/09/12 14:42:05;;;;;;;0.40;0.10;;;;;;;29.60;100.00;101174.50;10458913;28;20041;-75
2023/09/12 14:47:07;;;;;;;0.43;0.28;;;;;;;29.64;100.00;101170.75;10441947;28;20056;-76
2023/09/12 14:52:09;;;;;;;0.15;0.10;;;;;;;29.31;100.00;101168.84;10435055;28;20056;-76
2023/09/12 14:57:22;;;;;;;0.38;0.32;;;;;;;29.56;100.00;101172.94;10453741;28;20060;-76
2023/09/12 15:02:31;;;;;;;0.13;0.13;;;;;;;30.01;100.00;101162.75;10440018;28;20071;-76
2023/09/12 15:07:34;;;;;;;0.52;0.13;;;;;;;29.74;100.00;101157.88;10440471;28;20505;-75
2023/09/12 15:12:36;;;;;;;0.65;0.20;;;;;;;30.59;100.00;101148.16;10449943;28;20370;-77
2023/09/12 15:17:38;;;;;;;0.10;0.10;;;;;;;30.20;100.00;101136.91;10437694;28;20085;-76
2023/09/12 15:22:43;;;;;;;0.10;0.10;;;;;;;30.34;100.00;101144.16;10427224;28;20045;-76
2023/09/12 15:27:45;;;;;;;0.00;0.00;;;;;;;30.16;100.00;101140.66;10447360;28;20048;-76
2023/09/12 15:32:46;;;;;;;0.00;0.00;;;;;;;30.37;100.00;101149.28;10424480;28;20041;-76
2023/09/12 15:37:48;;;;;;;0.20;0.20;;;;;;;30.46;100.00;101141.78;10449416;28;20143;-75
2023/09/12 15:42:50;;;;;;;0.20;0.10;;;;;;;30.21;100.00;101148.41;10449524;28;20032;-75
2023/09/12 15:47:51;;;;;;;0.20;0.20;;;;;;;30.59;100.00;101136.69;10453241;28;20084;-75
2023/09/12 15:52:53;;;;;;;0.00;0.00;;;;;;;30.25;100.00;101128.72;10433744;28;20492;-76
2023/09/12 15:57:55;;;;;;;0.10;0.10;;;;;;;29.98;100.00;101115.09;10446378;28;20488;-76
2023/09/12 16:02:57;;;;;;;0.00;0.00;;;;;;;29.42;100.00;101139.13;10448285;28;20495;-76
2023/09/12 16:07:58;;;;;;;0.35;0.35;;;;;;;30.11;100.00;101110.00;10443808;28;20053;-76
2023/09/12 16:13:00;;;;;;;0.10;0.10;;;;;;;29.91;100.00;101125.16;10452246;28;20044;-76
2023/09/12 16:18:02;;;;;;;0.00;0.00;;;;;;;30.19;100.00;101123.72;10449168;28;20045;-76
2023/09/12 16:23:04;;;;;;;0.10;0.10;;;;;;;29.53;100.00;101130.59;10434071;28;20053;-76
2023/09/12 16:28:05;;;;;;;0.22;0.10;;;;;;;29.37;100.00;101131.41;10448572;28;20090;-76
2023/09/12 16:33:07;;;;;;;0.00;0.00;;;;;;;29.19;100.00;101132.28;10448128;28;20589;-76
2023/09/12 16:38:09;;;;;;;0.00;0.00;;;;;;;29.29;100.00;101133.56;10433349;28;20057;-76
2023/09/12 16:43:10;;;;;;;0.20;0.20;;;;;;;29.11;100.00;101133.50;10447951;28;20054;-76
2023/09/12 16:48:12;;;;;;;0.10;0.10;;;;;;;29.17;100.00;101145.63;10443888;28;20057;-76
2023/09/12 16:53:15;;;;;;;0.00;0.00;;;;;;;28.84;100.00;101148.09;10448325;28;20048;-76
2023/09/12 16:58:16;;;;;;;0.30;0.15;;;;;;;28.71;100.00;101153.09;10433223;28;20512;-76
2023/09/12 17:03:18;;;;;;;0.00;0.00;;;;;;;28.76;100.00;101156.41;10449938;28;20045;-76
2023/09/12 17:08:20;;;;;;;0.55;0.10;;;;;;;28.33;100.00;101140.66;10449583;28;20048;-77
2023/09/12 17:13:22;;;;;;;0.03;0.00;;;;;;;28.34;100.00;101147.66;10432855;28;20053;-76
2023/09/12 17:18:23;;;;;;;0.10;0.10;;;;;;;27.65;100.00;101146.22;10449907;28;20053;-76
2023/09/12 17:23:25;;;;;;;0.00;0.00;;;;;;;28.47;100.00;101156.81;10449791;28;20055;-75
2023/09/12 17:28:27;;;;;;;0.10;0.10;;;;;;;28.42;100.00;101152.63;10434768;28;20057;-76
2023/09/12 17:33:28;;;;;;;0.70;0.10;;;;;;;27.94;100.00;101142.31;10449511;28;20045;-76
2023/09/12 17:38:30;;;;;;;0.10;0.10;;;;;;;28.10;100.00;101136.38;10429293;28;20057;-76
2023/09/12 17:43:32;;;;;;;0.10;0.10;;;;;;;27.39;100.00;101141.06;10444119;28;20056;-76
2023/09/12 17:48:35;;;;;;;0.22;0.10;;;;;;;27.19;100.00;101141.00;10448739;28;20056;-76
2023/09/12 17:54:03;;;;;;;0.15;0.10;;;;;;;27.15;100.00;101153.47;10432208;28;20144;-76
2023/09/12 17:59:04;;;;;;;0.00;0.00;;;;;;;27.61;100.00;101147.25;10415995;28;20068;-76
2023/09/12 18:04:06;;;;;;;0.00;0.00;;;;;;;27.27;100.00;101151.28;10424998;28;20048;-76
2023/09/12 18:09:08;;;;;;;0.35;0.20;;;;;;;26.76;100.00;101146.19;10444671;28;20049;-76
2023/09/12 18:14:09;;;;;;;0.10;0.00;;;;;;;27.11;100.00;101156.28;10448579;28;20045;-75
2023/09/12 18:19:11;;;;;;;0.10;0.00;;;;;;;26.23;100.00;101140.19;10447647;28;20091;-75
2023/09/12 18:24:13;;;;;;;0.35;0.28;;;;;;;27.09;100.00;101169.59;10428518;28;20067;-75
2023/09/12 18:29:16;;;;;;;0.10;0.10;;;;;;;26.73;100.00;101178.84;10446360;28;20061;-76
2023/09/12 18:34:17;;;;;;;0.00;0.00;;;;;;;26.79;100.00;101183.06;10422616;28;20137;-75
2023/09/12 18:39:20;;;;;;;0.10;0.10;;;;;;;26.24;100.00;101181.53;10449405;28;20082;-76
2023/09/12 18:44:23;;;;;;;0.25;0.10;;;;;;;26.26;100.00;101179.66;10446281;28;20041;-76
2023/09/12 18:49:25;;;;;;;0.30;0.22;;;;;;;26.48;100.00;101189.47;10451619;28;20120;-76
2023/09/12 18:54:28;;;;;;;1.02;0.28;;;;;;;26.17;100.00;101197.63;10446080;28;20045;-75
2023/09/12 18:59:30;;;;;;;0.32;0.10;;;;;;;25.97;100.00;101205.28;10467450;28;20059;-75
2023/09/12 19:04:34;;;;;;;0.10;0.10;;;;;;;26.07;100.00;101210.25;10437843;28;20110;-76
2023/09/12 19:09:36;;;;;;;0.00;0.00;;;;;;;25.97;100.00;101205.28;10436636;28;20399;-76
2023/09/12 19:14:37;;;;;;;0.00;0.00;;;;;;;26.23;100.00;101216.75;10430191;28;20052;-75
2023/09/12 19:19:57;;;;;;;0.88;0.20;;;;;;;25.98;100.00;101201.72;10450284;28;20044;-76
2023/09/12 19:24:59;;;;;;;0.00;0.00;;;;;;;25.83;100.00;101194.31;10467751;28;20411;-75
2023/09/12 19:30:01;;;;;;;0.20;0.17;;;;;;;26.06;100.00;101195.31;10438593;28;20053;-75
2023/09/12 19:35:03;;;;;;;0.00;0.00;;;;;;;25.94;100.00;101192.19;10443278;28;20068;-75
2023/09/12 19:40:05;;;;;;;0.00;0.00;;;;;;;25.58;100.00;101189.84;10452294;28;20059;-75
2023/09/12 19:45:08;;;;;;;0.10;0.10;;;;;;;24.99;100.00;101182.88;10450642;28;20048;-75
2023/09/12 19:50:10;;;;;;;0.00;0.00;;;;;;;24.75;100.00;101158.13;10447908;28;20053;-75
2023/09/12 19:55:12;;;;;;;0.35;0.30;;;;;;;24.46;100.00;101150.13;10445071;28;20037;-75
2023/09/12 20:00:14;;;;;;;0.25;0.13;;;;;;;24.83;100.00;101149.09;10413140;28;20045;-75
2023/09/12 20:05:20;;;;;;;0.35;0.25;;;;;;;24.75;100.00;101142.31;10443970;28;20059;-75
2023/09/12 20:10:23;;;;;;;0.03;0.03;;;;;;;25.24;100.00;101164.53;10452610;28;20119;-75
2023/09/12 20:15:25;;;;;;;0.98;0.65;;;;;;;24.62;100.00;101137.38;10444322;28;20044;-75
2023/09/12 20:20:26;;;;;;;0.25;0.22;;;;;;;23.88;100.00;101107.78;10431237;28;20053;-75
2023/09/12 20:25:28;;;;;;;2.00;0.80;;;;;;;23.95;100.00;101098.00;10434961;28;20488;-75
2023/09/12 20:30:30;;;;;;;1.10;0.40;;;;;;;23.94;100.00;101089.25;10438004;28;20056;-76
2023/09/12 20:35:34;;;;;;;0.52;0.38;;;;;;;24.20;100.00;101104.31;10447293;28;20055;-75
2023/09/12 20:40:36;;;;;;;0.22;0.10;;;;;;;23.80;100.00;101104.50;10441808;28;20049;-76
2023/09/12 20:45:38;;;;;;;0.47;0.35;;;;;;;23.83;100.00;101099.16;10447573;28;20060;-75
2023/09/12 20:51:09;;;;;;;0.30;0.30;;;;;;;23.62;100.00;101111.97;10427710;28;20120;-76
2023/09/12 20:56:12;;;;;;;0.47;0.30;;;;;;;23.82;100.00;101123.75;10449314;28;20059;-75
2023/09/12 21:01:14;;;;;;;0.75;0.22;;;;;;;23.98;100.00;101111.94;10424418;28;20060;-75
2023/09/12 21:06:16;;;;;;;0.00;0.00;;;;;;;23.81;100.00;101122.00;10426028;28;20094;-76
2023/09/12 21:11:18;;;;;;;0.47;0.25;;;;;;;23.86;100.00;101115.75;10426060;28;20101;-76
2023/09/12 21:16:19;;;;;;;3.00;0.38;;;;;;;23.96;100.00;101115.53;10448027;28;20044;-76
2023/09/12 21:21:21;;;;;;;0.22;0.22;;;;;;;23.79;100.00;101123.84;10428829;28;20372;-76
2023/09/12 21:26:23;;;;;;;0.08;0.08;;;;;;;23.44;100.00;101135.19;10441811;28;20037;-76
2023/09/12 21:31:24;;;;;;;0.20;0.20;;;;;;;23.66;100.00;101145.19;10441405;28;20048;-76
2023/09/12 21:36:26;;;;;;;0.05;0.03;;;;;;;24.39;100.00;101162.59;10447041;28;20184;-76
2023/09/12 21:41:28;;;;;;;0.00;0.00;;;;;;;24.23;100.00;101161.31;10421672;28;20049;-77
2023/09/12 21:46:29;;;;;;;0.05;0.05;;;;;;;24.50;100.00;101161.44;10433740;28;20045;-76
2023/09/12 21:51:31;;;;;;;0.25;0.05;;;;;;;24.00;100.00;101157.53;10445259;28;20052;-76
2023/09/12 21:56:33;;;;;;;0.00;0.00;;;;;;;24.44;100.00;101164.25;10439719;28;20049;-76
2023/09/12 22:01:35;;;;;;;0.20;0.13;;;;;;;24.11;100.00;101161.63;10439586;28;20094;-76
2023/09/12 22:06:37;;;;;;;0.10;0.10;;;;;;;24.46;100.00;101173.81;10449643;28;20065;-77
2023/09/12 22:18:32;;;;;;;0.00;0.00;;;;;;;24.38;100.00;101174.06;10451143;28;20400;-76
2023/09/12 22:23:36;;;;;;;0.10;0.10;;;;;;;24.38;100.00;101165.28;10456404;28;20128;-76
2023/09/12 22:28:38;;;;;;;0.05;0.05;;;;;;;23.60;100.00;101148.81;10456317;28;20055;-75
2023/09/12 22:33:40;;;;;;;0.05;0.05;;;;;;;23.37;100.00;101149.38;10453170;28;20045;-76
2023/09/12 22:38:42;;;;;;;0.43;0.10;;;;;;;23.49;100.00;101136.88;10454711;28;20439;-77
2023/09/12 22:43:44;;;;;;;0.08;0.08;;;;;;;23.96;100.00;101170.78;10457314;28;20040;-76
2023/09/12 22:48:46;;;;;;;0.00;0.00;;;;;;;23.16;100.00;101160.38;10436822;28;20135;-76
2023/09/12 22:53:48;;;;;;;0.05;0.05;;;;;;;23.01;100.00;101115.16;10434935;28;20102;-77
2023/09/12 22:58:50;;;;;;;0.00;0.00;;;;;;;22.02;100.00;101093.50;10441450;28;20053;-77
2023/09/12 23:03:52;;;;;;;0.28;0.10;;;;;;;22.18;100.00;101118.56;10458243;28;20045;-78